sensor_id;sensor_type;location;lat;lon;timestamp;P1;durP1;ratioP1;P2;durP2;ratioP2
10517;SDS011;5307;42.548;22.968;2022-12-07T00:00:53;20.17;;;6.65;;
10517;SDS011;5307;42.548;22.968;2022-12-07T00:03:20;16.38;;;7.50;;
10517;SDS011;5307;42.548;22.968;2022-12-07T00:05:48;18.92;;;7.90;;
10517;SDS011;5307;42.548;22.968;2022-12-07T00:08:15;19.45;;;7.78;;
10517;SDS011;5307;42.548;22.968;2022-12-07T00:10:42;15.73;;;7.38;;
10517;SDS011;5307;42.548;22.968;2022-12-07T00:13:09;20.33;;;7.82;;
10517;SDS011;5307;42.548;22.968;2022-12-07T00:15:35;19.40;;;8.32;;
10517;SDS011;5307;42.548;22.968;2022-12-07T00:18:02;24.77;;;8.20;;
10517;SDS011;5307;42.548;22.968;2022-12-07T00:20:29;24.80;;;9.18;;
10517;SDS011;5307;42.548;22.968;2022-12-07T00:22:58;20.08;;;7.70;;
10517;SDS011;5307;42.548;22.968;2022-12-07T00:25:24;32.80;;;10.85;;
10517;SDS011;5307;42.548;22.968;2022-12-07T00:27:51;28.13;;;8.82;;
10517;SDS011;5307;42.548;22.968;2022-12-07T00:30:18;18.83;;;8.73;;
10517;SDS011;5307;42.548;22.968;2022-12-07T00:32:45;20.15;;;7.70;;
10517;SDS011;5307;42.548;22.968;2022-12-07T00:35:12;25.90;;;8.48;;
10517;SDS011;5307;42.548;22.968;2022-12-07T00:37:39;19.15;;;6.47;;
10517;SDS011;5307;42.548;22.968;2022-12-07T00:40:08;13.30;;;5.85;;
10517;SDS011;5307;42.548;22.968;2022-12-07T00:42:35;20.25;;;7.05;;
10517;SDS011;5307;42.548;22.968;2022-12-07T00:45:02;17.15;;;6.57;;
10517;SDS011;5307;42.548;22.968;2022-12-07T00:47:29;19.90;;;7.00;;
10517;SDS011;5307;42.548;22.968;2022-12-07T00:49:56;24.30;;;8.00;;
10517;SDS011;5307;42.548;22.968;2022-12-07T00:52:23;21.33;;;7.38;;
10517;SDS011;5307;42.548;22.968;2022-12-07T00:54:50;11.68;;;6.65;;
10517;SDS011;5307;42.548;22.968;2022-12-07T00:57:18;22.13;;;6.25;;
10517;SDS011;5307;42.548;22.968;2022-12-07T00:59:45;15.75;;;6.85;;
10517;SDS011;5307;42.548;22.968;2022-12-07T01:02:12;14.43;;;6.30;;
10517;SDS011;5307;42.548;22.968;2022-12-07T01:04:39;21.90;;;7.22;;
10517;SDS011;5307;42.548;22.968;2022-12-07T01:07:06;14.90;;;6.32;;
10517;SDS011;5307;42.548;22.968;2022-12-07T01:09:33;17.58;;;7.03;;
10517;SDS011;5307;42.548;22.968;2022-12-07T01:11:59;16.75;;;6.70;;
10517;SDS011;5307;42.548;22.968;2022-12-07T01:17:34;17.70;;;6.75;;
10517;SDS011;5307;42.548;22.968;2022-12-07T01:20:01;16.73;;;7.07;;
10517;SDS011;5307;42.548;22.968;2022-12-07T01:22:30;17.17;;;6.70;;
10517;SDS011;5307;42.548;22.968;2022-12-07T01:24:56;13.05;;;6.97;;
10517;SDS011;5307;42.548;22.968;2022-12-07T01:27:23;21.20;;;6.93;;
10517;SDS011;5307;42.548;22.968;2022-12-07T01:29:50;14.93;;;6.18;;
10517;SDS011;5307;42.548;22.968;2022-12-07T01:32:17;12.73;;;6.72;;
10517;SDS011;5307;42.548;22.968;2022-12-07T01:34:45;11.55;;;5.90;;
10517;SDS011;5307;42.548;22.968;2022-12-07T01:37:14;12.77;;;6.65;;
10517;SDS011;5307;42.548;22.968;2022-12-07T01:39:40;11.77;;;6.03;;
10517;SDS011;5307;42.548;22.968;2022-12-07T01:42:09;22.05;;;7.13;;
10517;SDS011;5307;42.548;22.968;2022-12-07T01:47:35;19.38;;;6.40;;
10517;SDS011;5307;42.548;22.968;2022-12-07T01:50:04;21.27;;;7.30;;
10517;SDS011;5307;42.548;22.968;2022-12-07T01:52:31;13.77;;;6.47;;
10517;SDS011;5307;42.548;22.968;2022-12-07T01:55:02;22.38;;;6.35;;
10517;SDS011;5307;42.548;22.968;2022-12-07T01:57:32;15.90;;;6.72;;
10517;SDS011;5307;42.548;22.968;2022-12-07T02:00:02;14.38;;;6.65;;
10517;SDS011;5307;42.548;22.968;2022-12-07T02:02:31;16.80;;;7.25;;
10517;SDS011;5307;42.548;22.968;2022-12-07T02:05:13;13.95;;;6.88;;
10517;SDS011;5307;42.548;22.968;2022-12-07T02:07:41;10.95;;;6.25;;
10517;SDS011;5307;42.548;22.968;2022-12-07T02:10:13;19.90;;;7.13;;
10517;SDS011;5307;42.548;22.968;2022-12-07T02:12:41;13.85;;;7.25;;
10517;SDS011;5307;42.548;22.968;2022-12-07T02:15:10;19.55;;;6.78;;
10517;SDS011;5307;42.548;22.968;2022-12-07T02:17:38;14.32;;;6.90;;
10517;SDS011;5307;42.548;22.968;2022-12-07T02:20:23;12.75;;;6.90;;
10517;SDS011;5307;42.548;22.968;2022-12-07T02:26:01;14.57;;;6.45;;
10517;SDS011;5307;42.548;22.968;2022-12-07T02:28:58;19.38;;;7.03;;
10517;SDS011;5307;42.548;22.968;2022-12-07T02:31:37;17.52;;;7.13;;
10517;SDS011;5307;42.548;22.968;2022-12-07T02:34:12;22.67;;;6.43;;
10517;SDS011;5307;42.548;22.968;2022-12-07T02:36:46;17.67;;;6.70;;
10517;SDS011;5307;42.548;22.968;2022-12-07T02:39:19;21.45;;;7.13;;
10517;SDS011;5307;42.548;22.968;2022-12-07T02:41:53;13.13;;;6.40;;
10517;SDS011;5307;42.548;22.968;2022-12-07T02:44:25;13.13;;;5.97;;
10517;SDS011;5307;42.548;22.968;2022-12-07T02:46:55;20.73;;;6.35;;
10517;SDS011;5307;42.548;22.968;2022-12-07T02:49:25;25.02;;;6.90;;
10517;SDS011;5307;42.548;22.968;2022-12-07T02:51:53;18.85;;;6.82;;
10517;SDS011;5307;42.548;22.968;2022-12-07T02:54:21;18.27;;;6.05;;
10517;SDS011;5307;42.548;22.968;2022-12-07T02:56:48;16.05;;;5.78;;
10517;SDS011;5307;42.548;22.968;2022-12-07T02:59:22;20.67;;;7.28;;
10517;SDS011;5307;42.548;22.968;2022-12-07T03:02:01;18.08;;;6.93;;
10517;SDS011;5307;42.548;22.968;2022-12-07T03:04:39;13.70;;;6.80;;
10517;SDS011;5307;42.548;22.968;2022-12-07T03:07:11;15.35;;;6.15;;
10517;SDS011;5307;42.548;22.968;2022-12-07T03:09:51;13.40;;;6.95;;
10517;SDS011;5307;42.548;22.968;2022-12-07T03:12:23;20.63;;;6.90;;
10517;SDS011;5307;42.548;22.968;2022-12-07T03:14:57;12.40;;;6.88;;
10517;SDS011;5307;42.548;22.968;2022-12-07T03:17:30;20.55;;;6.95;;
10517;SDS011;5307;42.548;22.968;2022-12-07T03:20:02;17.25;;;6.45;;
10517;SDS011;5307;42.548;22.968;2022-12-07T03:22:33;16.35;;;6.45;;
10517;SDS011;5307;42.548;22.968;2022-12-07T03:25:04;19.05;;;7.35;;
10517;SDS011;5307;42.548;22.968;2022-12-07T03:27:35;22.60;;;8.27;;
10517;SDS011;5307;42.548;22.968;2022-12-07T03:30:09;15.98;;;7.07;;
10517;SDS011;5307;42.548;22.968;2022-12-07T03:32:41;16.50;;;7.05;;
10517;SDS011;5307;42.548;22.968;2022-12-07T03:35:12;16.20;;;6.68;;
10517;SDS011;5307;42.548;22.968;2022-12-07T03:37:45;18.48;;;7.30;;
10517;SDS011;5307;42.548;22.968;2022-12-07T03:40:18;17.45;;;7.05;;
10517;SDS011;5307;42.548;22.968;2022-12-07T03:42:49;21.63;;;7.20;;
10517;SDS011;5307;42.548;22.968;2022-12-07T03:45:19;15.90;;;7.50;;
10517;SDS011;5307;42.548;22.968;2022-12-07T03:47:52;18.25;;;6.50;;
10517;SDS011;5307;42.548;22.968;2022-12-07T03:50:28;12.30;;;6.45;;
10517;SDS011;5307;42.548;22.968;2022-12-07T04:02:03;15.07;;;7.38;;
10517;SDS011;5307;42.548;22.968;2022-12-07T04:04:31;17.35;;;7.07;;
10517;SDS011;5307;42.548;22.968;2022-12-07T04:06:59;19.75;;;7.65;;
10517;SDS011;5307;42.548;22.968;2022-12-07T04:09:27;23.63;;;7.57;;
10517;SDS011;5307;42.548;22.968;2022-12-07T04:11:54;20.23;;;7.18;;
10517;SDS011;5307;42.548;22.968;2022-12-07T04:14:21;25.33;;;8.85;;
10517;SDS011;5307;42.548;22.968;2022-12-07T04:16:49;27.23;;;9.25;;
10517;SDS011;5307;42.548;22.968;2022-12-07T04:19:18;15.32;;;7.95;;
10517;SDS011;5307;42.548;22.968;2022-12-07T04:21:46;15.80;;;8.10;;
10517;SDS011;5307;42.548;22.968;2022-12-07T04:24:14;16.60;;;7.10;;
10517;SDS011;5307;42.548;22.968;2022-12-07T04:26:41;14.13;;;7.18;;
10517;SDS011;5307;42.548;22.968;2022-12-07T04:29:08;13.82;;;7.28;;
10517;SDS011;5307;42.548;22.968;2022-12-07T04:31:35;17.35;;;7.85;;
10517;SDS011;5307;42.548;22.968;2022-12-07T04:34:03;15.40;;;7.60;;
10517;SDS011;5307;42.548;22.968;2022-12-07T04:36:32;19.38;;;7.88;;
10517;SDS011;5307;42.548;22.968;2022-12-07T04:38:59;17.17;;;8.18;;
10517;SDS011;5307;42.548;22.968;2022-12-07T04:41:26;23.70;;;7.60;;
10517;SDS011;5307;42.548;22.968;2022-12-07T04:43:54;15.02;;;7.45;;
10517;SDS011;5307;42.548;22.968;2022-12-07T04:46:21;18.52;;;6.97;;
10517;SDS011;5307;42.548;22.968;2022-12-07T04:48:49;23.45;;;7.00;;
10517;SDS011;5307;42.548;22.968;2022-12-07T04:51:17;27.85;;;8.05;;
10517;SDS011;5307;42.548;22.968;2022-12-07T04:53:48;25.58;;;8.15;;
10517;SDS011;5307;42.548;22.968;2022-12-07T04:56:15;17.40;;;7.68;;
10517;SDS011;5307;42.548;22.968;2022-12-07T04:58:43;15.93;;;7.80;;
10517;SDS011;5307;42.548;22.968;2022-12-07T05:01:11;24.38;;;8.90;;
10517;SDS011;5307;42.548;22.968;2022-12-07T05:03:38;19.10;;;8.35;;
10517;SDS011;5307;42.548;22.968;2022-12-07T05:06:04;18.48;;;8.40;;
10517;SDS011;5307;42.548;22.968;2022-12-07T05:08:32;21.45;;;8.52;;
10517;SDS011;5307;42.548;22.968;2022-12-07T05:11:01;21.77;;;8.48;;
10517;SDS011;5307;42.548;22.968;2022-12-07T05:13:29;24.00;;;9.05;;
10517;SDS011;5307;42.548;22.968;2022-12-07T05:15:56;34.40;;;12.88;;
10517;SDS011;5307;42.548;22.968;2022-12-07T05:18:23;33.60;;;12.15;;
10517;SDS011;5307;42.548;22.968;2022-12-07T05:20:50;62.47;;;17.52;;
10517;SDS011;5307;42.548;22.968;2022-12-07T05:23:17;57.58;;;17.27;;
10517;SDS011;5307;42.548;22.968;2022-12-07T05:25:44;60.75;;;17.23;;
10517;SDS011;5307;42.548;22.968;2022-12-07T05:28:14;29.80;;;9.75;;
10517;SDS011;5307;42.548;22.968;2022-12-07T05:30:41;34.55;;;10.60;;
10517;SDS011;5307;42.548;22.968;2022-12-07T05:33:07;51.33;;;16.15;;
10517;SDS011;5307;42.548;22.968;2022-12-07T05:35:34;68.57;;;19.48;;
10517;SDS011;5307;42.548;22.968;2022-12-07T05:38:06;69.32;;;18.75;;
10517;SDS011;5307;42.548;22.968;2022-12-07T05:40:32;36.58;;;12.15;;
10517;SDS011;5307;42.548;22.968;2022-12-07T05:45:57;45.80;;;14.85;;
10517;SDS011;5307;42.548;22.968;2022-12-07T05:48:24;22.63;;;9.75;;
10517;SDS011;5307;42.548;22.968;2022-12-07T05:50:52;16.00;;;8.75;;
10517;SDS011;5307;42.548;22.968;2022-12-07T05:53:19;21.60;;;9.35;;
10517;SDS011;5307;42.548;22.968;2022-12-07T05:55:46;24.67;;;10.70;;
10517;SDS011;5307;42.548;22.968;2022-12-07T05:58:12;31.13;;;11.75;;
10517;SDS011;5307;42.548;22.968;2022-12-07T06:00:58;31.13;;;14.32;;
10517;SDS011;5307;42.548;22.968;2022-12-07T06:03:25;30.75;;;12.73;;
10517;SDS011;5307;42.548;22.968;2022-12-07T06:05:52;26.63;;;10.77;;
10517;SDS011;5307;42.548;22.968;2022-12-07T06:08:19;22.67;;;10.35;;
10517;SDS011;5307;42.548;22.968;2022-12-07T06:10:46;21.63;;;9.93;;
10517;SDS011;5307;42.548;22.968;2022-12-07T06:13:35;29.15;;;10.57;;
10517;SDS011;5307;42.548;22.968;2022-12-07T06:16:02;18.02;;;9.07;;
10517;SDS011;5307;42.548;22.968;2022-12-07T06:18:29;21.20;;;7.88;;
10517;SDS011;5307;42.548;22.968;2022-12-07T06:20:56;24.30;;;10.60;;
10517;SDS011;5307;42.548;22.968;2022-12-07T06:23:23;20.23;;;10.00;;
10517;SDS011;5307;42.548;22.968;2022-12-07T06:25:49;19.83;;;9.05;;
10517;SDS011;5307;42.548;22.968;2022-12-07T06:28:16;19.63;;;10.40;;
10517;SDS011;5307;42.548;22.968;2022-12-07T06:30:43;17.70;;;8.73;;
10517;SDS011;5307;42.548;22.968;2022-12-07T06:33:18;17.88;;;9.27;;
10517;SDS011;5307;42.548;22.968;2022-12-07T06:35:45;22.40;;;9.80;;
10517;SDS011;5307;42.548;22.968;2022-12-07T06:44:30;20.85;;;9.65;;
10517;SDS011;5307;42.548;22.968;2022-12-07T06:46:57;20.70;;;9.23;;
10517;SDS011;5307;42.548;22.968;2022-12-07T06:49:26;20.67;;;9.38;;
10517;SDS011;5307;42.548;22.968;2022-12-07T06:51:52;20.80;;;10.38;;
10517;SDS011;5307;42.548;22.968;2022-12-07T06:54:19;21.42;;;9.20;;
10517;SDS011;5307;42.548;22.968;2022-12-07T06:56:46;22.00;;;9.23;;
10517;SDS011;5307;42.548;22.968;2022-12-07T06:59:13;16.63;;;9.27;;
10517;SDS011;5307;42.548;22.968;2022-12-07T07:01:40;25.13;;;10.48;;
10517;SDS011;5307;42.548;22.968;2022-12-07T07:04:08;16.35;;;9.27;;
10517;SDS011;5307;42.548;22.968;2022-12-07T07:06:36;16.70;;;7.78;;
10517;SDS011;5307;42.548;22.968;2022-12-07T07:09:03;15.25;;;7.97;;
10517;SDS011;5307;42.548;22.968;2022-12-07T07:11:30;17.10;;;7.95;;
10517;SDS011;5307;42.548;22.968;2022-12-07T07:13:56;13.13;;;8.07;;
10517;SDS011;5307;42.548;22.968;2022-12-07T07:16:27;19.27;;;8.18;;
10517;SDS011;5307;42.548;22.968;2022-12-07T07:18:54;20.52;;;9.05;;
10517;SDS011;5307;42.548;22.968;2022-12-07T07:21:21;17.23;;;7.88;;
10517;SDS011;5307;42.548;22.968;2022-12-07T07:23:49;20.70;;;8.30;;
10517;SDS011;5307;42.548;22.968;2022-12-07T07:26:17;17.80;;;9.43;;
10517;SDS011;5307;42.548;22.968;2022-12-07T07:28:43;20.95;;;9.20;;
10517;SDS011;5307;42.548;22.968;2022-12-07T07:31:10;24.25;;;8.88;;
10517;SDS011;5307;42.548;22.968;2022-12-07T07:33:37;25.85;;;9.02;;
10517;SDS011;5307;42.548;22.968;2022-12-07T07:36:04;30.38;;;9.70;;
10517;SDS011;5307;42.548;22.968;2022-12-07T07:38:33;22.83;;;8.80;;
10517;SDS011;5307;42.548;22.968;2022-12-07T07:41:01;18.58;;;9.07;;
10517;SDS011;5307;42.548;22.968;2022-12-07T07:43:28;21.88;;;8.93;;
10517;SDS011;5307;42.548;22.968;2022-12-07T07:45:54;22.33;;;9.45;;
10517;SDS011;5307;42.548;22.968;2022-12-07T07:48:21;33.35;;;10.18;;
10517;SDS011;5307;42.548;22.968;2022-12-07T07:50:50;19.13;;;8.73;;
10517;SDS011;5307;42.548;22.968;2022-12-07T07:53:17;30.80;;;11.52;;
10517;SDS011;5307;42.548;22.968;2022-12-07T07:55:49;27.20;;;11.23;;
10517;SDS011;5307;42.548;22.968;2022-12-07T07:58:19;24.35;;;9.82;;
10517;SDS011;5307;42.548;22.968;2022-12-07T08:00:47;26.45;;;13.48;;
10517;SDS011;5307;42.548;22.968;2022-12-07T08:03:14;29.27;;;13.48;;
10517;SDS011;5307;42.548;22.968;2022-12-07T08:05:41;26.55;;;11.23;;
10517;SDS011;5307;42.548;22.968;2022-12-07T08:08:08;27.27;;;9.80;;
10517;SDS011;5307;42.548;22.968;2022-12-07T08:10:35;25.00;;;8.50;;
10517;SDS011;5307;42.548;22.968;2022-12-07T08:13:02;23.10;;;10.30;;
10517;SDS011;5307;42.548;22.968;2022-12-07T08:15:41;26.88;;;12.55;;
10517;SDS011;5307;42.548;22.968;2022-12-07T08:18:09;17.75;;;9.85;;
10517;SDS011;5307;42.548;22.968;2022-12-07T08:20:37;19.65;;;8.77;;
10517;SDS011;5307;42.548;22.968;2022-12-07T08:23:05;25.45;;;10.25;;
10517;SDS011;5307;42.548;22.968;2022-12-07T08:25:32;16.00;;;8.68;;
10517;SDS011;5307;42.548;22.968;2022-12-07T08:27:59;16.23;;;8.20;;
10517;SDS011;5307;42.548;22.968;2022-12-07T08:30:27;17.70;;;9.93;;
10517;SDS011;5307;42.548;22.968;2022-12-07T08:32:56;21.33;;;8.65;;
10517;SDS011;5307;42.548;22.968;2022-12-07T08:35:23;17.58;;;8.70;;
10517;SDS011;5307;42.548;22.968;2022-12-07T08:37:50;17.75;;;8.57;;
10517;SDS011;5307;42.548;22.968;2022-12-07T08:40:16;16.92;;;9.27;;
10517;SDS011;5307;42.548;22.968;2022-12-07T08:42:44;28.92;;;11.18;;
10517;SDS011;5307;42.548;22.968;2022-12-07T08:45:14;17.92;;;9.27;;
10517;SDS011;5307;42.548;22.968;2022-12-07T08:47:43;22.42;;;9.45;;
10517;SDS011;5307;42.548;22.968;2022-12-07T08:50:16;16.55;;;8.00;;
10517;SDS011;5307;42.548;22.968;2022-12-07T09:01:58;18.52;;;7.82;;
10517;SDS011;5307;42.548;22.968;2022-12-07T09:04:24;17.88;;;9.35;;
10517;SDS011;5307;42.548;22.968;2022-12-07T09:06:53;14.93;;;7.78;;
10517;SDS011;5307;42.548;22.968;2022-12-07T09:09:20;12.77;;;7.68;;
10517;SDS011;5307;42.548;22.968;2022-12-07T09:11:47;14.38;;;8.68;;
10517;SDS011;5307;42.548;22.968;2022-12-07T09:14:14;17.30;;;8.05;;
10517;SDS011;5307;42.548;22.968;2022-12-07T09:16:42;24.20;;;7.72;;
10517;SDS011;5307;42.548;22.968;2022-12-07T09:19:09;15.93;;;6.70;;
10517;SDS011;5307;42.548;22.968;2022-12-07T09:21:36;15.40;;;8.07;;
10517;SDS011;5307;42.548;22.968;2022-12-07T09:24:05;15.20;;;7.07;;
10517;SDS011;5307;42.548;22.968;2022-12-07T09:26:34;15.02;;;7.88;;
10517;SDS011;5307;42.548;22.968;2022-12-07T09:29:01;12.82;;;7.32;;
10517;SDS011;5307;42.548;22.968;2022-12-07T09:31:29;14.18;;;8.23;;
10517;SDS011;5307;42.548;22.968;2022-12-07T09:33:55;20.02;;;8.25;;
10517;SDS011;5307;42.548;22.968;2022-12-07T09:36:23;14.45;;;7.53;;
10517;SDS011;5307;42.548;22.968;2022-12-07T09:38:50;19.77;;;6.53;;
10517;SDS011;5307;42.548;22.968;2022-12-07T09:41:18;20.83;;;7.15;;
10517;SDS011;5307;42.548;22.968;2022-12-07T09:43:47;18.48;;;7.38;;
10517;SDS011;5307;42.548;22.968;2022-12-07T09:46:15;15.95;;;7.43;;
10517;SDS011;5307;42.548;22.968;2022-12-07T09:48:45;14.38;;;7.93;;
10517;SDS011;5307;42.548;22.968;2022-12-07T09:51:14;14.77;;;7.47;;
10517;SDS011;5307;42.548;22.968;2022-12-07T09:53:44;17.40;;;7.93;;
10517;SDS011;5307;42.548;22.968;2022-12-07T09:56:11;14.63;;;8.20;;
10517;SDS011;5307;42.548;22.968;2022-12-07T09:58:42;11.18;;;6.38;;
10517;SDS011;5307;42.548;22.968;2022-12-07T10:01:11;15.02;;;7.78;;
10517;SDS011;5307;42.548;22.968;2022-12-07T10:03:40;11.50;;;5.07;;
10517;SDS011;5307;42.548;22.968;2022-12-07T10:06:11;16.17;;;7.57;;
10517;SDS011;5307;42.548;22.968;2022-12-07T10:08:39;14.35;;;7.95;;
10517;SDS011;5307;42.548;22.968;2022-12-07T10:11:06;21.00;;;8.63;;
10517;SDS011;5307;42.548;22.968;2022-12-07T10:13:36;15.27;;;7.68;;
10517;SDS011;5307;42.548;22.968;2022-12-07T10:16:08;16.63;;;6.93;;
10517;SDS011;5307;42.548;22.968;2022-12-07T10:19:16;21.02;;;9.15;;
10517;SDS011;5307;42.548;22.968;2022-12-07T10:21:58;19.15;;;8.98;;
10517;SDS011;5307;42.548;22.968;2022-12-07T10:24:27;16.30;;;7.95;;
10517;SDS011;5307;42.548;22.968;2022-12-07T10:26:57;26.38;;;9.65;;
10517;SDS011;5307;42.548;22.968;2022-12-07T10:29:24;10.77;;;7.18;;
10517;SDS011;5307;42.548;22.968;2022-12-07T10:31:59;10.85;;;7.00;;
10517;SDS011;5307;42.548;22.968;2022-12-07T10:34:27;15.75;;;7.95;;
10517;SDS011;5307;42.548;22.968;2022-12-07T10:37:16;18.48;;;7.95;;
10517;SDS011;5307;42.548;22.968;2022-12-07T10:39:45;19.95;;;8.93;;
10517;SDS011;5307;42.548;22.968;2022-12-07T10:42:17;21.48;;;8.45;;
10517;SDS011;5307;42.548;22.968;2022-12-07T10:44:46;18.88;;;9.75;;
10517;SDS011;5307;42.548;22.968;2022-12-07T10:47:27;15.20;;;8.60;;
10517;SDS011;5307;42.548;22.968;2022-12-07T10:50:10;16.00;;;8.70;;
10517;SDS011;5307;42.548;22.968;2022-12-07T10:53:01;17.27;;;8.65;;
10517;SDS011;5307;42.548;22.968;2022-12-07T10:55:47;18.58;;;9.48;;
10517;SDS011;5307;42.548;22.968;2022-12-07T10:58:36;12.75;;;7.57;;
10517;SDS011;5307;42.548;22.968;2022-12-07T11:01:18;20.98;;;8.05;;
10517;SDS011;5307;42.548;22.968;2022-12-07T11:03:55;15.55;;;8.82;;
10517;SDS011;5307;42.548;22.968;2022-12-07T11:06:39;15.95;;;6.95;;
10517;SDS011;5307;42.548;22.968;2022-12-07T11:09:33;14.10;;;7.05;;
10517;SDS011;5307;42.548;22.968;2022-12-07T11:12:10;14.55;;;6.82;;
10517;SDS011;5307;42.548;22.968;2022-12-07T11:14:49;13.93;;;7.78;;
10517;SDS011;5307;42.548;22.968;2022-12-07T11:17:26;12.73;;;5.85;;
10517;SDS011;5307;42.548;22.968;2022-12-07T11:20:12;12.75;;;6.45;;
10517;SDS011;5307;42.548;22.968;2022-12-07T11:22:54;10.15;;;5.18;;
10517;SDS011;5307;42.548;22.968;2022-12-07T11:25:29;9.13;;;5.43;;
10517;SDS011;5307;42.548;22.968;2022-12-07T11:28:06;7.20;;;5.10;;
10517;SDS011;5307;42.548;22.968;2022-12-07T11:34:29;8.75;;;5.35;;
10517;SDS011;5307;42.548;22.968;2022-12-07T11:37:06;10.38;;;5.70;;
10517;SDS011;5307;42.548;22.968;2022-12-07T11:39:39;11.07;;;6.55;;
10517;SDS011;5307;42.548;22.968;2022-12-07T11:42:13;11.63;;;5.47;;
10517;SDS011;5307;42.548;22.968;2022-12-07T11:44:45;8.43;;;5.85;;
10517;SDS011;5307;42.548;22.968;2022-12-07T11:47:20;11.98;;;5.68;;
10517;SDS011;5307;42.548;22.968;2022-12-07T11:49:54;10.02;;;5.22;;
10517;SDS011;5307;42.548;22.968;2022-12-07T11:52:27;12.98;;;6.35;;
10517;SDS011;5307;42.548;22.968;2022-12-07T11:54:58;14.55;;;8.32;;
10517;SDS011;5307;42.548;22.968;2022-12-07T11:57:28;11.70;;;5.53;;
10517;SDS011;5307;42.548;22.968;2022-12-07T12:00:04;10.45;;;6.45;;
10517;SDS011;5307;42.548;22.968;2022-12-07T12:02:41;10.32;;;4.95;;
10517;SDS011;5307;42.548;22.968;2022-12-07T12:05:16;18.02;;;5.38;;
10517;SDS011;5307;42.548;22.968;2022-12-07T12:07:46;11.75;;;6.20;;
10517;SDS011;5307;42.548;22.968;2022-12-07T12:10:18;17.20;;;6.13;;
10517;SDS011;5307;42.548;22.968;2022-12-07T12:12:58;9.25;;;5.57;;
10517;SDS011;5307;42.548;22.968;2022-12-07T12:19:22;10.05;;;5.03;;
10517;SDS011;5307;42.548;22.968;2022-12-07T12:21:55;12.15;;;6.65;;
10517;SDS011;5307;42.548;22.968;2022-12-07T12:24:38;9.57;;;5.28;;
10517;SDS011;5307;42.548;22.968;2022-12-07T12:27:07;21.52;;;10.73;;
10517;SDS011;5307;42.548;22.968;2022-12-07T12:29:37;10.38;;;6.50;;
10517;SDS011;5307;42.548;22.968;2022-12-07T12:32:16;9.48;;;5.97;;
10517;SDS011;5307;42.548;22.968;2022-12-07T12:38:20;11.48;;;5.70;;
10517;SDS011;5307;42.548;22.968;2022-12-07T12:40:54;9.23;;;5.07;;
10517;SDS011;5307;42.548;22.968;2022-12-07T12:43:41;9.05;;;5.03;;
10517;SDS011;5307;42.548;22.968;2022-12-07T12:55:15;9.10;;;4.78;;
10517;SDS011;5307;42.548;22.968;2022-12-07T12:57:47;12.80;;;5.47;;
10517;SDS011;5307;42.548;22.968;2022-12-07T13:00:39;11.00;;;4.72;;
10517;SDS011;5307;42.548;22.968;2022-12-07T13:03:16;8.75;;;5.30;;
10517;SDS011;5307;42.548;22.968;2022-12-07T13:05:48;10.23;;;5.63;;
10517;SDS011;5307;42.548;22.968;2022-12-07T13:08:57;14.00;;;5.30;;
10517;SDS011;5307;42.548;22.968;2022-12-07T13:11:29;9.20;;;5.30;;
10517;SDS011;5307;42.548;22.968;2022-12-07T13:16:58;8.25;;;4.78;;
10517;SDS011;5307;42.548;22.968;2022-12-07T13:25:29;10.40;;;4.88;;
10517;SDS011;5307;42.548;22.968;2022-12-07T13:28:03;8.55;;;4.55;;
10517;SDS011;5307;42.548;22.968;2022-12-07T13:30:42;11.27;;;7.38;;
10517;SDS011;5307;42.548;22.968;2022-12-07T13:33:20;11.60;;;5.63;;
10517;SDS011;5307;42.548;22.968;2022-12-07T13:35:47;8.25;;;5.07;;
10517;SDS011;5307;42.548;22.968;2022-12-07T13:38:22;13.48;;;6.47;;
10517;SDS011;5307;42.548;22.968;2022-12-07T13:41:03;8.73;;;4.82;;
10517;SDS011;5307;42.548;22.968;2022-12-07T13:43:41;11.63;;;7.10;;
10517;SDS011;5307;42.548;22.968;2022-12-07T13:46:09;16.92;;;8.30;;
10517;SDS011;5307;42.548;22.968;2022-12-07T13:48:43;12.25;;;6.28;;
10517;SDS011;5307;42.548;22.968;2022-12-07T13:51:16;16.77;;;6.15;;
10517;SDS011;5307;42.548;22.968;2022-12-07T13:53:48;14.07;;;5.68;;
10517;SDS011;5307;42.548;22.968;2022-12-07T13:56:17;12.82;;;8.65;;
10517;SDS011;5307;42.548;22.968;2022-12-07T13:58:44;11.90;;;7.57;;
10517;SDS011;5307;42.548;22.968;2022-12-07T14:01:11;13.15;;;7.85;;
10517;SDS011;5307;42.548;22.968;2022-12-07T14:03:38;15.70;;;8.65;;
10517;SDS011;5307;42.548;22.968;2022-12-07T14:06:17;22.88;;;11.77;;
10517;SDS011;5307;42.548;22.968;2022-12-07T14:08:49;21.73;;;10.75;;
10517;SDS011;5307;42.548;22.968;2022-12-07T14:11:17;54.80;;;19.55;;
10517;SDS011;5307;42.548;22.968;2022-12-07T14:13:56;34.55;;;12.68;;
10517;SDS011;5307;42.548;22.968;2022-12-07T14:16:26;18.27;;;9.90;;
10517;SDS011;5307;42.548;22.968;2022-12-07T14:18:57;56.10;;;21.60;;
10517;SDS011;5307;42.548;22.968;2022-12-07T14:21:25;29.90;;;14.82;;
10517;SDS011;5307;42.548;22.968;2022-12-07T14:26:46;19.23;;;10.18;;
10517;SDS011;5307;42.548;22.968;2022-12-07T14:29:21;30.95;;;6.70;;
10517;SDS011;5307;42.548;22.968;2022-12-07T14:31:56;19.48;;;8.50;;
10517;SDS011;5307;42.548;22.968;2022-12-07T14:34:24;16.13;;;8.57;;
10517;SDS011;5307;42.548;22.968;2022-12-07T14:36:51;17.92;;;8.30;;
10517;SDS011;5307;42.548;22.968;2022-12-07T14:45:27;25.70;;;10.57;;
10517;SDS011;5307;42.548;22.968;2022-12-07T14:47:54;19.98;;;12.57;;
10517;SDS011;5307;42.548;22.968;2022-12-07T14:50:22;19.27;;;10.75;;
10517;SDS011;5307;42.548;22.968;2022-12-07T14:52:49;22.20;;;10.68;;
10517;SDS011;5307;42.548;22.968;2022-12-07T14:55:22;19.45;;;13.18;;
10517;SDS011;5307;42.548;22.968;2022-12-07T14:57:51;24.33;;;15.95;;
10517;SDS011;5307;42.548;22.968;2022-12-07T15:00:20;24.38;;;14.25;;
10517;SDS011;5307;42.548;22.968;2022-12-07T15:02:48;24.65;;;13.65;;
10517;SDS011;5307;42.548;22.968;2022-12-07T15:08:01;15.88;;;10.30;;
10517;SDS011;5307;42.548;22.968;2022-12-07T15:10:29;17.20;;;10.90;;
10517;SDS011;5307;42.548;22.968;2022-12-07T15:12:57;15.73;;;8.95;;
10517;SDS011;5307;42.548;22.968;2022-12-07T15:15:46;21.67;;;10.98;;
10517;SDS011;5307;42.548;22.968;2022-12-07T15:18:13;20.58;;;11.20;;
10517;SDS011;5307;42.548;22.968;2022-12-07T15:20:40;24.60;;;13.43;;
10517;SDS011;5307;42.548;22.968;2022-12-07T15:23:07;23.95;;;14.10;;
10517;SDS011;5307;42.548;22.968;2022-12-07T15:25:34;41.00;;;16.40;;
10517;SDS011;5307;42.548;22.968;2022-12-07T15:28:01;34.45;;;19.77;;
10517;SDS011;5307;42.548;22.968;2022-12-07T15:30:28;33.03;;;16.30;;
10517;SDS011;5307;42.548;22.968;2022-12-07T15:32:56;38.55;;;20.90;;
10517;SDS011;5307;42.548;22.968;2022-12-07T15:35:23;36.05;;;19.00;;
10517;SDS011;5307;42.548;22.968;2022-12-07T15:37:49;68.53;;;34.75;;
10517;SDS011;5307;42.548;22.968;2022-12-07T15:40:16;37.38;;;18.73;;
10517;SDS011;5307;42.548;22.968;2022-12-07T15:42:43;38.08;;;17.88;;
10517;SDS011;5307;42.548;22.968;2022-12-07T15:45:10;24.70;;;15.75;;
10517;SDS011;5307;42.548;22.968;2022-12-07T15:47:37;39.28;;;21.33;;
10517;SDS011;5307;42.548;22.968;2022-12-07T15:50:07;41.25;;;19.40;;
10517;SDS011;5307;42.548;22.968;2022-12-07T15:52:35;47.13;;;19.13;;
10517;SDS011;5307;42.548;22.968;2022-12-07T15:55:02;27.75;;;15.38;;
10517;SDS011;5307;42.548;22.968;2022-12-07T15:57:30;41.05;;;20.40;;
10517;SDS011;5307;42.548;22.968;2022-12-07T15:59:57;43.50;;;23.60;;
10517;SDS011;5307;42.548;22.968;2022-12-07T16:02:24;43.00;;;23.17;;
10517;SDS011;5307;42.548;22.968;2022-12-07T16:04:51;46.08;;;20.98;;
10517;SDS011;5307;42.548;22.968;2022-12-07T16:07:19;34.50;;;17.38;;
10517;SDS011;5307;42.548;22.968;2022-12-07T16:09:46;64.32;;;28.55;;